createdAt,value
2023-02-13T00:00:38.282Z,96.96
2023-02-13T00:03:06.559Z,97.21
2023-02-13T00:05:34.319Z,96.51
2023-02-13T00:08:02.325Z,96.69
2023-02-13T00:10:30.875Z,96.59
2023-02-13T00:13:00.026Z,96.60
2023-02-13T00:15:27.953Z,96.11
2023-02-13T00:17:55.757Z,95.87
2023-02-13T00:20:23.676Z,96.07
2023-02-13T00:22:51.483Z,96.27
2023-02-13T00:25:19.290Z,95.76
2023-02-13T00:27:47.115Z,96.17
2023-02-13T00:30:18.166Z,96.01
2023-02-13T00:32:46.077Z,95.86
2023-02-13T00:35:13.956Z,96.16
2023-02-13T00:37:41.908Z,96.38
2023-02-13T00:40:10.436Z,96.33
2023-02-13T00:42:38.254Z,96.34
2023-02-13T00:45:07.405Z,96.49
2023-02-13T00:47:36.626Z,96.62
2023-02-13T00:50:04.910Z,96.33
2023-02-13T00:52:33.001Z,96.69
2023-02-13T00:55:00.881Z,96.77
2023-02-13T00:57:29.283Z,96.69
2023-02-13T00:59:57.150Z,97.01
2023-02-13T01:02:25.127Z,96.90
2023-02-13T01:04:54.298Z,96.57
2023-02-13T01:07:22.137Z,96.85
2023-02-13T01:09:49.934Z,96.77
2023-02-13T01:12:17.681Z,96.96
2023-02-13T01:14:45.514Z,96.81
2023-02-13T01:17:13.321Z,96.96
2023-02-13T01:19:42.117Z,96.82
2023-02-13T01:22:11.318Z,96.94
2023-02-13T01:24:39.189Z,97.05
2023-02-13T01:27:06.992Z,97.13
2023-02-13T01:29:34.977Z,97.07
2023-02-13T01:32:05.069Z,97.14
2023-02-13T01:34:33.171Z,97.27
2023-02-13T01:37:01.255Z,97.31
2023-02-13T01:39:30.680Z,97.41
2023-02-13T01:41:58.650Z,97.55
2023-02-13T01:44:49.835Z,97.64
2023-02-13T01:47:24.941Z,97.04
2023-02-13T01:49:59.386Z,97.48
2023-02-13T01:52:27.618Z,97.48
2023-02-13T01:54:57.953Z,97.90
2023-02-13T01:57:29.754Z,97.54
2023-02-13T02:00:02.453Z,97.47
2023-02-13T02:02:32.836Z,97.30
2023-02-13T02:05:03.700Z,97.36
2023-02-13T02:07:33.118Z,97.67
2023-02-13T02:10:12.373Z,96.93
2023-02-13T02:12:46.403Z,97.20
2023-02-13T02:15:14.818Z,97.20
2023-02-13T02:17:42.748Z,97.40
2023-02-13T02:20:23.960Z,97.73
2023-02-13T02:23:30.898Z,97.81
2023-02-13T02:26:26.276Z,97.63
2023-02-13T02:29:24.504Z,98.21
2023-02-13T02:32:34.869Z,97.86
2023-02-13T02:35:17.934Z,98.18
2023-02-13T02:38:01.570Z,97.87
2023-02-13T02:40:38.674Z,97.87
2023-02-13T02:43:17.574Z,98.39
2023-02-13T02:45:54.117Z,97.46
2023-02-13T02:48:50.152Z,97.20
2023-02-13T02:51:26.530Z,96.89
2023-02-13T02:54:26.328Z,97.51
2023-02-13T02:57:01.720Z,97.78
2023-02-13T02:59:49.953Z,97.98
2023-02-13T03:02:44.700Z,97.84
2023-02-13T03:05:38.626Z,97.58
2023-02-13T03:08:06.752Z,97.79
2023-02-13T03:10:55.898Z,97.28
2023-02-13T03:13:39.446Z,97.06
2023-02-13T03:16:25.186Z,97.24
2023-02-13T03:19:14.513Z,97.09
2023-02-13T03:22:06.855Z,97.00
2023-02-13T03:24:46.768Z,97.31
2023-02-13T03:27:43.215Z,97.51
2023-02-13T03:30:22.991Z,97.48
2023-02-13T03:33:01.440Z,97.15
2023-02-13T03:35:55.722Z,96.70
2023-02-13T03:38:30.430Z,96.57
2023-02-13T03:41:20.525Z,96.41
2023-02-13T03:43:57.398Z,96.59
2023-02-13T03:46:27.620Z,97.00
2023-02-13T03:49:15.492Z,97.07
2023-02-13T03:51:50.042Z,96.74
2023-02-13T03:54:42.288Z,97.21
2023-02-13T03:57:30.446Z,97.16
2023-02-13T03:59:59.616Z,97.94
2023-02-13T04:02:35.070Z,97.06
2023-02-13T04:05:10.271Z,96.45
2023-02-13T04:07:38.127Z,96.53
2023-02-13T04:10:11.070Z,97.12
2023-02-13T04:12:45.892Z,96.66
2023-02-13T04:15:17.241Z,96.63
2023-02-13T04:17:49.377Z,96.92
2023-02-13T04:20:17.363Z,97.27
2023-02-13T04:22:45.828Z,96.67
2023-02-13T04:25:18.038Z,97.20
2023-02-13T04:27:45.957Z,96.76
2023-02-13T04:30:14.862Z,97.34
2023-02-13T04:32:42.636Z,97.83
2023-02-13T04:35:11.587Z,97.29
2023-02-13T04:37:39.378Z,97.71
2023-02-13T04:40:08.094Z,97.94
2023-02-13T04:42:37.734Z,98.43
2023-02-13T04:45:05.920Z,98.08
2023-02-13T04:47:34.013Z,98.48
2023-02-13T04:50:02.039Z,99.04
2023-02-13T04:52:29.905Z,98.83
2023-02-13T04:54:57.776Z,98.66
2023-02-13T04:57:25.618Z,98.86
2023-02-13T04:59:54.784Z,99.66
2023-02-13T05:02:22.606Z,98.98
2023-02-13T05:04:50.622Z,99.69
2023-02-13T05:07:18.577Z,99.52
2023-02-13T05:09:46.775Z,99.40
2023-02-13T05:12:14.783Z,99.50
2023-02-13T05:14:42.608Z,98.96
2023-02-13T05:17:11.815Z,99.50
2023-02-13T05:19:39.665Z,99.95
2023-02-13T05:22:25.114Z,99.87
2023-02-13T05:24:53.165Z,99.00
2023-02-13T05:27:22.482Z,99.73
2023-02-13T05:29:50.371Z,99.85
2023-02-13T05:32:19.571Z,99.29
2023-02-13T05:34:47.515Z,99.84
2023-02-13T05:37:15.526Z,100.00
2023-02-13T05:39:44.046Z,100.00
2023-02-13T05:42:12.479Z,100.00
2023-02-13T05:44:41.003Z,100.00
2023-02-13T05:47:11.790Z,100.00
2023-02-13T05:49:41.142Z,100.00
2023-02-13T05:52:09.366Z,100.00
2023-02-13T05:54:38.417Z,100.00
2023-02-13T05:57:06.293Z,100.00
2023-02-13T05:59:34.160Z,100.00
2023-02-13T06:02:01.991Z,100.00
2023-02-13T06:04:29.734Z,100.00
2023-02-13T06:06:58.923Z,100.00
2023-02-13T06:09:26.687Z,100.00
2023-02-13T06:11:54.482Z,100.00
2023-02-13T06:14:22.336Z,100.00
2023-02-13T06:16:50.205Z,100.00
2023-02-13T06:19:17.928Z,100.00
2023-02-13T06:21:45.691Z,100.00
2023-02-13T06:24:14.852Z,100.00
2023-02-13T06:26:42.620Z,100.00
2023-02-13T06:29:11.172Z,100.00
2023-02-13T06:31:39.500Z,100.00
2023-02-13T06:34:08.093Z,100.00
2023-02-13T06:36:37.481Z,100.00
2023-02-13T06:39:05.616Z,100.00
2023-02-13T06:41:34.818Z,100.00
2023-02-13T06:44:02.725Z,100.00
2023-02-13T06:46:30.756Z,100.00
2023-02-13T06:48:59.036Z,100.00
2023-02-13T06:51:26.877Z,100.00
2023-02-13T06:53:54.719Z,100.00
2023-02-13T06:56:22.631Z,100.00
2023-02-13T06:58:51.809Z,100.00
2023-02-13T07:01:19.601Z,100.00
2023-02-13T07:03:48.743Z,100.00
2023-02-13T07:06:18.943Z,100.00
2023-02-13T07:08:46.827Z,100.00
2023-02-13T07:11:19.468Z,100.00
2023-02-13T07:13:47.397Z,100.00
2023-02-13T07:16:16.737Z,100.00
2023-02-13T07:18:44.587Z,100.00
2023-02-13T07:21:12.389Z,100.00
2023-02-13T07:23:40.500Z,100.00
2023-02-13T07:26:11.078Z,100.00
2023-02-13T07:28:39.022Z,100.00
2023-02-13T07:31:07.388Z,100.00
2023-02-13T07:33:37.222Z,100.00
2023-02-13T07:36:05.981Z,98.49
2023-02-13T07:38:34.684Z,95.35
2023-02-13T07:41:03.550Z,95.06
2023-02-13T07:43:31.744Z,93.51
2023-02-13T07:46:00.063Z,91.91
2023-02-13T07:48:28.618Z,90.95
2023-02-13T07:51:01.443Z,89.48
2023-02-13T07:53:29.482Z,86.01
2023-02-13T07:55:57.615Z,85.17
2023-02-13T07:58:25.622Z,84.89
2023-02-13T08:00:53.388Z,83.37
2023-02-13T08:03:21.229Z,82.03
2023-02-13T08:05:50.299Z,83.25
2023-02-13T08:08:19.419Z,81.53
2023-02-13T08:11:04.777Z,80.85
2023-02-13T08:13:33.645Z,79.74
2023-02-13T08:16:01.690Z,80.74
2023-02-13T08:18:29.545Z,79.59
2023-02-13T08:20:57.369Z,78.44
2023-02-13T08:23:26.809Z,77.96
2023-02-13T08:25:55.883Z,77.21
2023-02-13T08:28:23.821Z,78.74
2023-02-13T08:30:51.714Z,78.27
2023-02-13T08:33:19.717Z,77.73
2023-02-13T08:35:47.546Z,75.61
2023-02-13T08:38:15.347Z,73.70
2023-02-13T08:40:44.567Z,73.90
2023-02-13T08:43:12.416Z,76.94
2023-02-13T08:45:40.241Z,75.11
2023-02-13T08:48:08.548Z,75.03
2023-02-13T08:50:37.562Z,76.01
2023-02-13T08:53:05.511Z,75.49
2023-02-13T08:55:33.487Z,73.49
2023-02-13T08:58:03.533Z,74.24
2023-02-13T09:00:31.639Z,74.95
2023-02-13T09:03:02.441Z,74.82
2023-02-13T09:05:31.709Z,74.90
2023-02-13T09:08:02.254Z,75.09
2023-02-13T09:10:30.129Z,72.76
2023-02-13T09:12:58.057Z,75.46
2023-02-13T09:15:27.241Z,72.85
2023-02-13T09:17:55.409Z,73.24
2023-02-13T09:20:23.232Z,71.25
2023-02-13T09:22:51.074Z,69.25
2023-02-13T09:25:20.246Z,69.92
2023-02-13T09:27:48.092Z,67.79
2023-02-13T09:30:23.194Z,68.76
2023-02-13T09:32:52.871Z,68.34
2023-02-13T09:35:21.579Z,65.66
2023-02-13T09:37:49.397Z,64.64
2023-02-13T09:40:22.159Z,61.77
2023-02-13T09:42:51.570Z,62.09
2023-02-13T09:45:22.944Z,62.33
2023-02-13T09:47:52.316Z,63.30
2023-02-13T09:50:23.563Z,63.11
2023-02-13T09:52:54.963Z,63.29
2023-02-13T09:55:26.787Z,63.33
2023-02-13T09:58:01.147Z,63.56
2023-02-13T10:00:36.673Z,64.63
2023-02-13T10:03:19.970Z,62.64
2023-02-13T10:05:57.876Z,60.56
2023-02-13T10:08:35.476Z,60.49
2023-02-13T10:11:09.355Z,62.00
2023-02-13T10:13:55.184Z,59.08
2023-02-13T10:16:27.059Z,58.03
2023-02-13T10:19:00.972Z,58.32
2023-02-13T10:21:34.078Z,57.32
2023-02-13T10:24:07.820Z,56.92
2023-02-13T10:26:46.475Z,54.48
2023-02-13T10:29:39.606Z,55.10
2023-02-13T10:32:12.084Z,54.87
2023-02-13T10:34:45.397Z,53.94
2023-02-13T10:37:16.774Z,52.72
2023-02-13T10:39:50.915Z,51.69
2023-02-13T10:42:24.652Z,52.76
2023-02-13T10:45:10.093Z,52.52
2023-02-13T10:47:54.259Z,51.42
2023-02-13T10:50:31.713Z,53.09
2023-02-13T10:53:12.267Z,53.32
2023-02-13T10:56:16.974Z,52.10
2023-02-13T10:58:59.386Z,52.22
2023-02-13T11:01:33.462Z,53.56
2023-02-13T11:04:09.584Z,52.94
2023-02-13T11:06:42.918Z,52.53
2023-02-13T11:09:13.399Z,51.84
2023-02-13T11:11:43.854Z,52.36
2023-02-13T11:14:15.396Z,50.46
2023-02-13T11:16:50.138Z,51.74
2023-02-13T11:19:21.002Z,49.96
2023-02-13T11:21:56.132Z,49.07
2023-02-13T11:24:25.623Z,49.56
2023-02-13T11:26:56.057Z,49.29
2023-02-13T11:29:26.620Z,49.58
2023-02-13T11:32:20.464Z,49.05
2023-02-13T11:34:50.555Z,47.82
2023-02-13T11:37:24.260Z,48.63
2023-02-13T11:39:54.106Z,47.94
2023-02-13T11:42:27.654Z,45.55
2023-02-13T11:44:59.540Z,46.61
2023-02-13T11:47:40.422Z,46.27
2023-02-13T11:50:22.289Z,47.31
2023-02-13T11:52:58.089Z,47.62
2023-02-13T11:55:30.784Z,47.91
2023-02-13T11:58:00.693Z,47.11
2023-02-13T12:00:37.714Z,46.72
2023-02-13T12:03:27.504Z,46.32
2023-02-13T12:06:03.915Z,47.44
2023-02-13T12:08:35.592Z,47.09
2023-02-13T12:11:08.166Z,47.06
2023-02-13T12:13:39.799Z,46.95
2023-02-13T12:16:18.004Z,47.56
2023-02-13T12:18:50.213Z,48.06
2023-02-13T12:21:35.270Z,46.51
2023-02-13T12:24:12.242Z,45.18
2023-02-13T12:26:43.886Z,45.81
2023-02-13T12:29:29.409Z,45.66
2023-02-13T12:32:07.210Z,46.04
2023-02-13T12:34:55.378Z,45.49
2023-02-13T12:37:42.065Z,45.88
2023-02-13T12:40:30.335Z,43.73
2023-02-13T12:43:18.005Z,44.40
2023-02-13T12:45:51.405Z,44.80
2023-02-13T12:48:35.511Z,43.48
2023-02-13T12:51:18.510Z,44.48
2023-02-13T12:53:58.570Z,44.24
2023-02-13T12:56:49.823Z,44.28
2023-02-13T12:59:28.450Z,43.75
2023-02-13T13:02:34.463Z,44.19
2023-02-13T13:05:16.362Z,42.84
2023-02-13T13:08:09.710Z,43.23
2023-02-13T13:11:01.838Z,43.19
2023-02-13T13:13:42.178Z,43.41
2023-02-13T13:16:17.883Z,43.52
2023-02-13T13:19:01.076Z,44.04
2023-02-13T13:21:41.028Z,43.50
2023-02-13T13:24:23.058Z,43.58
2023-02-13T13:26:54.075Z,43.23
2023-02-13T13:29:27.053Z,43.09
2023-02-13T13:31:58.914Z,43.48
2023-02-13T13:34:28.637Z,43.32
2023-02-13T13:37:02.966Z,43.44
2023-02-13T13:39:42.076Z,43.83
2023-02-13T13:42:18.025Z,42.79
2023-02-13T13:45:00.738Z,42.32
2023-02-13T13:47:42.954Z,42.77
2023-02-13T13:50:20.997Z,43.32
2023-02-13T13:53:08.083Z,43.11
2023-02-13T13:56:09.170Z,44.08
2023-02-13T13:58:43.438Z,44.83
2023-02-13T14:01:29.300Z,43.98
2023-02-13T14:03:59.214Z,43.81
2023-02-13T14:06:29.645Z,44.10
2023-02-13T14:09:29.305Z,44.12
2023-02-13T14:12:02.366Z,44.28
2023-02-13T14:14:54.323Z,43.83
2023-02-13T14:17:52.594Z,43.33
2023-02-13T14:20:33.229Z,43.41
2023-02-13T14:23:09.787Z,43.74
2023-02-13T14:25:38.654Z,44.49
2023-02-13T14:28:08.146Z,44.39
2023-02-13T14:30:40.331Z,44.87
2023-02-13T14:33:22.386Z,43.68
2023-02-13T14:36:01.862Z,44.49
2023-02-13T14:38:30.900Z,45.09
2023-02-13T14:40:58.999Z,44.29
2023-02-13T14:43:50.945Z,44.57
2023-02-13T14:46:36.411Z,43.99
2023-02-13T14:49:12.913Z,44.89
2023-02-13T14:51:42.535Z,44.22
2023-02-13T14:54:21.095Z,44.05
2023-02-13T14:56:51.909Z,44.39
2023-02-13T14:59:25.965Z,45.04
2023-02-13T15:02:00.130Z,45.31
2023-02-13T15:04:35.955Z,45.70
2023-02-13T15:07:06.720Z,45.60
2023-02-13T15:09:38.869Z,45.57
2023-02-13T15:12:25.673Z,45.35
2023-02-13T15:14:55.022Z,45.81
2023-02-13T15:17:25.562Z,45.56
2023-02-13T15:19:55.462Z,45.56
2023-02-13T15:22:31.721Z,46.12
2023-02-13T15:25:00.165Z,46.66
2023-02-13T15:27:30.264Z,46.19
2023-02-13T15:30:03.430Z,46.58
2023-02-13T15:32:36.560Z,46.39
2023-02-13T15:35:22.020Z,46.56
2023-02-13T15:37:50.116Z,46.89
2023-02-13T15:40:24.939Z,47.20
2023-02-13T15:42:53.610Z,47.44
2023-02-13T15:45:25.376Z,47.44
2023-02-13T15:47:55.934Z,47.68
2023-02-13T15:50:29.954Z,47.96
2023-02-13T15:52:58.480Z,48.02
2023-02-13T15:55:28.652Z,48.58
2023-02-13T15:57:59.763Z,48.78
2023-02-13T16:00:32.088Z,49.06
2023-02-13T16:03:03.235Z,49.56
2023-02-13T16:05:41.066Z,49.52
2023-02-13T16:08:29.122Z,49.40
2023-02-13T16:11:18.637Z,49.78
2023-02-13T16:14:04.218Z,50.11
2023-02-13T16:16:36.899Z,50.57
2023-02-13T16:19:05.487Z,50.74
2023-02-13T16:21:35.807Z,51.01
2023-02-13T16:24:06.809Z,51.42
2023-02-13T16:26:39.076Z,51.84
2023-02-13T16:29:11.004Z,51.94
2023-02-13T16:31:41.247Z,52.50
2023-02-13T16:34:16.823Z,52.90
2023-02-13T16:36:44.445Z,53.28
2023-02-13T16:39:19.629Z,53.14
2023-02-13T16:41:47.523Z,53.91
2023-02-13T16:44:27.101Z,53.97
2023-02-13T16:46:58.857Z,54.31
2023-02-13T16:49:29.473Z,54.75
2023-02-13T16:52:07.867Z,54.97
2023-02-13T16:54:38.578Z,54.97
2023-02-13T16:57:19.616Z,55.34
2023-02-13T16:59:55.957Z,55.88
2023-02-13T17:02:26.923Z,56.28
2023-02-13T17:04:58.063Z,56.71
2023-02-13T17:07:27.429Z,57.06
2023-02-13T17:09:58.260Z,57.28
2023-02-13T17:12:27.182Z,57.32
2023-02-13T17:14:55.867Z,57.74
2023-02-13T17:17:25.125Z,57.84
2023-02-13T17:19:52.949Z,57.63
2023-02-13T17:22:30.170Z,58.40
2023-02-13T17:24:58.352Z,59.22
2023-02-13T17:27:26.233Z,59.28
2023-02-13T17:29:54.270Z,59.61
2023-02-13T17:32:27.417Z,59.47
2023-02-13T17:34:55.557Z,59.60
2023-02-13T17:37:24.928Z,59.99
2023-02-13T17:39:53.493Z,60.29
2023-02-13T17:42:25.004Z,60.78
2023-02-13T17:44:53.925Z,61.22
2023-02-13T17:47:22.348Z,61.72
2023-02-13T17:49:55.144Z,63.06
2023-02-13T17:52:28.434Z,63.21
2023-02-13T17:54:56.241Z,63.39
2023-02-13T17:57:24.006Z,63.73
2023-02-13T17:59:52.068Z,64.19
2023-02-13T18:02:22.135Z,64.82
2023-02-13T18:04:51.789Z,65.44
2023-02-13T18:07:21.752Z,65.47
2023-02-13T18:09:50.150Z,66.39
2023-02-13T18:12:20.075Z,65.92
2023-02-13T18:14:48.401Z,66.83
2023-02-13T18:17:17.565Z,66.69
2023-02-13T18:19:46.340Z,67.02
2023-02-13T18:22:15.820Z,67.72
2023-02-13T18:24:44.252Z,68.59
2023-02-13T18:27:12.403Z,68.98
2023-02-13T18:29:40.828Z,69.27
2023-02-13T18:32:10.709Z,70.10
2023-02-13T18:34:39.794Z,70.17
2023-02-13T18:37:08.471Z,70.58
2023-02-13T18:39:37.683Z,71.13
2023-02-13T18:42:05.652Z,71.72
2023-02-13T18:44:33.627Z,71.73
2023-02-13T18:47:02.153Z,73.03
2023-02-13T18:49:30.015Z,73.25
2023-02-13T18:51:58.193Z,73.67
2023-02-13T18:54:26.225Z,73.29
2023-02-13T18:56:55.431Z,74.26
2023-02-13T18:59:23.587Z,74.27
2023-02-13T19:01:51.849Z,75.03
2023-02-13T19:04:20.103Z,74.88
2023-02-13T19:06:48.410Z,75.34
2023-02-13T19:09:16.230Z,75.85
2023-02-13T19:11:44.534Z,75.23
2023-02-13T19:14:14.994Z,75.44
2023-02-13T19:16:43.325Z,75.55
2023-02-13T19:19:11.567Z,75.83
2023-02-13T19:21:40.258Z,76.63
2023-02-13T19:24:10.368Z,76.62
2023-02-13T19:26:38.239Z,76.43
2023-02-13T19:29:06.025Z,76.30
2023-02-13T19:31:35.507Z,76.38
2023-02-13T19:34:05.643Z,77.10
2023-02-13T19:36:33.666Z,77.15
2023-02-13T19:39:03.739Z,77.44
2023-02-13T19:41:32.913Z,77.44
2023-02-13T19:44:01.150Z,77.49
2023-02-13T19:46:31.431Z,77.73
2023-02-13T19:49:00.888Z,77.62
2023-02-13T19:51:30.751Z,77.90
2023-02-13T19:53:59.190Z,78.02
2023-02-13T19:56:27.814Z,78.08
2023-02-13T19:58:56.182Z,78.17
2023-02-13T20:01:25.896Z,78.43
2023-02-13T20:03:54.574Z,78.94
2023-02-13T20:06:27.745Z,78.46
2023-02-13T20:08:58.771Z,79.17
2023-02-13T20:11:26.920Z,79.38
2023-02-13T20:13:56.455Z,79.84
2023-02-13T20:16:25.009Z,80.22
2023-02-13T20:18:54.814Z,80.30
2023-02-13T20:21:24.408Z,80.82
2023-02-13T20:23:52.661Z,80.61
2023-02-13T20:26:21.154Z,80.88
2023-02-13T20:28:49.094Z,80.84
2023-02-13T20:31:19.290Z,81.18
2023-02-13T20:33:47.854Z,81.40
2023-02-13T20:36:18.566Z,81.87
2023-02-13T20:38:48.166Z,81.84
2023-02-13T20:41:17.750Z,82.08
2023-02-13T20:43:46.182Z,82.15
2023-02-13T20:46:15.896Z,82.05
2023-02-13T20:48:45.427Z,82.59
2023-02-13T20:51:16.245Z,82.54
2023-02-13T20:53:45.060Z,82.26
2023-02-13T20:56:15.836Z,82.40
2023-02-13T20:58:45.899Z,82.75
2023-02-13T21:01:15.919Z,82.46
2023-02-13T21:03:44.565Z,82.35
2023-02-13T21:06:12.777Z,82.71
2023-02-13T21:08:43.387Z,82.69
2023-02-13T21:11:11.270Z,83.17
2023-02-13T21:13:40.874Z,83.54
2023-02-13T21:16:10.587Z,83.49
2023-02-13T21:18:39.296Z,83.05
2023-02-13T21:21:08.822Z,84.34
2023-02-13T21:23:37.123Z,84.49
2023-02-13T21:26:06.697Z,84.89
2023-02-13T21:28:34.581Z,85.53
2023-02-13T21:31:08.801Z,85.30
2023-02-13T21:33:37.092Z,86.12
2023-02-13T21:36:07.456Z,86.58
2023-02-13T21:38:36.713Z,87.02
2023-02-13T21:41:06.435Z,87.63
2023-02-13T21:43:37.773Z,88.24
2023-02-13T21:46:12.292Z,87.69
2023-02-13T21:48:40.866Z,87.81
2023-02-13T21:51:10.133Z,88.50
2023-02-13T21:53:38.715Z,88.72
2023-02-13T21:56:08.975Z,89.47
2023-02-13T21:58:37.998Z,88.84
2023-02-13T22:01:23.918Z,89.34
2023-02-13T22:03:53.784Z,89.14
2023-02-13T22:06:21.832Z,89.86
2023-02-13T22:08:50.144Z,89.97
2023-02-13T22:11:18.413Z,90.01
2023-02-13T22:13:46.358Z,89.83
2023-02-13T22:16:16.971Z,90.40
2023-02-13T22:18:46.019Z,89.92
2023-02-13T22:21:16.534Z,89.75
2023-02-13T22:23:45.644Z,89.74
2023-02-13T22:26:17.689Z,89.14
2023-02-13T22:28:45.753Z,89.53
2023-02-13T22:31:15.960Z,89.60
2023-02-13T22:33:47.639Z,89.68
2023-02-13T22:36:17.985Z,90.37
2023-02-13T22:38:45.828Z,89.85
2023-02-13T22:41:15.675Z,90.63
2023-02-13T22:43:44.004Z,90.56
2023-02-13T22:46:14.490Z,89.94
2023-02-13T22:48:46.008Z,89.64
2023-02-13T22:51:15.926Z,90.69
2023-02-13T22:53:44.603Z,90.32
2023-02-13T22:56:13.147Z,89.81
2023-02-13T22:58:41.232Z,90.18
2023-02-13T23:01:13.572Z,89.55
2023-02-13T23:03:41.754Z,90.12
2023-02-13T23:06:12.641Z,89.93
2023-02-13T23:08:41.193Z,90.26
2023-02-13T23:11:29.003Z,90.48
2023-02-13T23:13:56.882Z,90.27
2023-02-13T23:16:25.124Z,91.09
2023-02-13T23:18:53.419Z,92.00
2023-02-13T23:21:23.205Z,91.56
2023-02-13T23:23:51.403Z,91.09
2023-02-13T23:26:19.720Z,91.12
2023-02-13T23:28:47.717Z,92.15
2023-02-13T23:31:15.599Z,91.70
2023-02-13T23:33:43.630Z,91.25
2023-02-13T23:36:11.479Z,91.13
2023-02-13T23:38:40.623Z,91.90
2023-02-13T23:41:09.334Z,92.14
2023-02-13T23:43:37.384Z,92.31
2023-02-13T23:46:05.885Z,91.58
2023-02-13T23:48:34.850Z,91.78
2023-02-13T23:51:02.776Z,91.73
2023-02-13T23:53:30.636Z,91.65
2023-02-13T23:55:59.823Z,91.75
2023-02-13T23:58:27.713Z,92.16
